createdAt,value
2017-11-05T00:02:19.183Z,53.20
2017-11-05T00:04:47.503Z,54.63
2017-11-05T00:07:16.587Z,47.40
2017-11-05T00:09:44.881Z,51.67
2017-11-05T00:12:13.197Z,48.17
2017-11-05T00:14:41.528Z,45.63
2017-11-05T00:17:10.611Z,47.33
2017-11-05T00:19:38.905Z,48.43
2017-11-05T00:22:08.003Z,47.77
2017-11-05T00:24:37.074Z,54.37
2017-11-05T00:27:05.385Z,46.53
2017-11-05T00:29:33.691Z,49.53
2017-11-05T00:32:02.031Z,49.80
2017-11-05T00:34:31.097Z,52.00
2017-11-05T00:36:59.406Z,45.80
2017-11-05T00:39:28.478Z,51.57
2017-11-05T00:41:56.771Z,53.67
2017-11-05T00:44:25.118Z,52.30
2017-11-05T00:46:53.421Z,47.80
2017-11-05T00:49:21.727Z,53.87
2017-11-05T00:51:50.029Z,50.60
2017-11-05T00:54:18.348Z,57.63
2017-11-05T00:56:46.655Z,48.10
2017-11-05T00:59:14.959Z,54.20
2017-11-05T01:01:43.262Z,53.17
2017-11-05T01:04:12.156Z,53.87
2017-11-05T01:06:40.467Z,54.27
2017-11-05T01:09:08.797Z,45.83
2017-11-05T01:11:37.094Z,49.23
2017-11-05T01:14:05.393Z,49.40
2017-11-05T01:16:34.453Z,48.70
2017-11-05T01:19:02.772Z,46.60
2017-11-05T01:21:31.074Z,51.50
2017-11-05T01:23:59.407Z,44.03
2017-11-05T01:26:28.470Z,51.33
2017-11-05T01:28:56.817Z,47.10
2017-11-05T01:31:25.119Z,50.40
2017-11-05T01:33:53.424Z,46.33
2017-11-05T01:36:21.717Z,49.37
2017-11-05T01:38:50.852Z,53.90
2017-11-05T01:41:19.450Z,48.27
2017-11-05T01:43:47.771Z,63.10
2017-11-05T01:46:16.838Z,57.07
2017-11-05T01:48:45.146Z,54.70
2017-11-05T01:51:14.205Z,55.30
2017-11-05T01:53:42.530Z,59.80
2017-11-05T01:56:10.844Z,54.77
2017-11-05T01:58:39.146Z,55.57
2017-11-05T02:01:07.434Z,56.10
2017-11-05T02:03:35.742Z,52.07
2017-11-05T02:06:04.034Z,63.53
2017-11-05T02:08:32.333Z,54.70
2017-11-05T02:11:00.622Z,50.03
2017-11-05T02:13:28.938Z,54.10
2017-11-05T02:15:58.031Z,51.50
2017-11-05T02:18:27.111Z,54.27
2017-11-05T02:20:55.413Z,46.73
2017-11-05T02:23:24.511Z,52.90
2017-11-05T02:25:52.909Z,51.67
2017-11-05T02:28:21.213Z,52.63
2017-11-05T02:30:49.505Z,60.37
2017-11-05T02:33:17.835Z,54.17
2017-11-05T02:35:46.130Z,52.87
2017-11-05T02:38:14.419Z,52.80
2017-11-05T02:40:42.747Z,56.80
2017-11-05T02:43:11.059Z,53.27
2017-11-05T02:45:39.374Z,61.27
2017-11-05T02:48:07.687Z,57.70
2017-11-05T02:50:36.006Z,59.20
2017-11-05T02:53:04.315Z,68.17
2017-11-05T02:55:33.410Z,56.57
2017-11-05T02:58:02.494Z,57.80
2017-11-05T03:00:30.802Z,64.50
2017-11-05T03:02:59.859Z,67.57
2017-11-05T03:05:28.165Z,65.67
2017-11-05T03:07:57.223Z,66.07
2017-11-05T03:10:25.535Z,59.10
2017-11-05T03:12:54.598Z,66.03
2017-11-05T03:15:22.957Z,60.90
2017-11-05T03:17:51.262Z,69.40
2017-11-05T03:20:19.576Z,62.97
2017-11-05T03:22:47.877Z,56.13
2017-11-05T03:25:16.186Z,61.80
2017-11-05T03:27:44.482Z,62.87
2017-11-05T03:30:12.801Z,52.77
2017-11-05T03:32:41.093Z,59.87
2017-11-05T03:35:09.398Z,63.40
2017-11-05T03:37:37.690Z,65.33
2017-11-05T03:40:05.998Z,57.67
2017-11-05T03:42:34.297Z,59.67
2017-11-05T03:45:02.606Z,64.27
2017-11-05T03:47:30.911Z,61.20
2017-11-05T03:49:59.991Z,62.97
2017-11-05T03:52:28.314Z,65.53
2017-11-05T03:54:56.616Z,56.23
2017-11-05T03:57:24.915Z,52.77
2017-11-05T03:59:53.233Z,57.10
2017-11-05T04:02:21.526Z,53.53
2017-11-05T04:04:49.832Z,59.67
2017-11-05T04:07:18.151Z,59.17
2017-11-05T04:09:47.207Z,55.27
2017-11-05T04:12:15.513Z,61.53
2017-11-05T04:14:44.579Z,64.97
2017-11-05T04:17:12.877Z,58.03
2017-11-05T04:19:41.955Z,55.93
2017-11-05T04:22:10.260Z,54.13
2017-11-05T04:24:39.313Z,59.80
2017-11-05T04:27:07.634Z,61.50
2017-11-05T04:29:36.700Z,51.50
2017-11-05T04:32:05.004Z,57.63
2017-11-05T04:34:34.066Z,56.40
2017-11-05T04:37:02.384Z,61.10
2017-11-05T04:39:30.681Z,59.57
2017-11-05T04:41:58.990Z,60.80
2017-11-05T04:44:27.290Z,61.73
2017-11-05T04:46:55.604Z,66.10
2017-11-05T04:49:23.901Z,62.93
2017-11-05T04:51:52.201Z,58.10
2017-11-05T04:54:20.489Z,55.57
2017-11-05T04:56:48.793Z,60.43
2017-11-05T04:59:17.853Z,62.73
2017-11-05T05:01:46.145Z,61.67
2017-11-05T05:04:14.445Z,66.47
2017-11-05T05:06:43.517Z,61.37
2017-11-05T05:09:11.815Z,55.73
2017-11-05T05:11:40.889Z,58.40
2017-11-05T05:14:09.182Z,57.80
2017-11-05T05:16:38.246Z,60.17
2017-11-05T05:19:06.537Z,67.13
2017-11-05T05:21:34.847Z,56.03
2017-11-05T05:24:03.150Z,54.13
2017-11-05T05:26:31.470Z,63.50
2017-11-05T05:28:59.759Z,60.37
2017-11-05T05:31:28.845Z,63.00
2017-11-05T05:33:57.148Z,60.73
2017-11-05T05:36:26.221Z,52.83
2017-11-05T05:38:54.523Z,60.17
2017-11-05T05:41:22.831Z,51.30
2017-11-05T05:43:51.119Z,58.37
2017-11-05T05:46:19.437Z,59.13
2017-11-05T05:48:48.505Z,65.20
2017-11-05T05:51:16.814Z,57.40
2017-11-05T05:53:45.877Z,51.60
2017-11-05T05:56:14.193Z,55.83
2017-11-05T05:58:43.254Z,53.87
2017-11-05T06:01:11.563Z,53.70
2017-11-05T06:03:40.626Z,55.40
2017-11-05T06:06:08.943Z,57.50
2017-11-05T06:08:37.237Z,52.40
2017-11-05T06:11:05.535Z,50.60
2017-11-05T06:13:33.836Z,50.67
2017-11-05T06:16:02.144Z,52.83
2017-11-05T06:18:31.202Z,53.80
2017-11-05T06:20:59.544Z,63.70
2017-11-05T06:23:27.837Z,56.63
2017-11-05T06:25:56.147Z,61.37
2017-11-05T06:28:24.432Z,55.93
2017-11-05T06:30:53.502Z,51.43
2017-11-05T06:33:21.864Z,57.10
2017-11-05T06:35:50.191Z,58.70
2017-11-05T06:38:19.256Z,51.60
2017-11-05T06:40:47.558Z,52.77
2017-11-05T06:43:16.646Z,56.80
2017-11-05T06:45:44.949Z,55.80
2017-11-05T06:48:13.261Z,55.37
2017-11-05T06:50:41.565Z,64.40
2017-11-05T06:53:09.898Z,59.27
2017-11-05T06:55:38.201Z,55.47
2017-11-05T06:58:06.527Z,60.77
2017-11-05T07:00:35.593Z,59.47
2017-11-05T07:03:03.931Z,62.77
2017-11-05T07:05:32.245Z,61.37
2017-11-05T07:08:00.557Z,64.60
2017-11-05T07:10:29.657Z,65.60
2017-11-05T07:12:57.964Z,65.70
2017-11-05T07:15:26.256Z,63.83
2017-11-05T07:17:54.562Z,64.87
2017-11-05T07:20:22.870Z,61.90
2017-11-05T07:22:51.189Z,69.27
2017-11-05T07:25:19.956Z,55.67
2017-11-05T07:27:48.270Z,60.10
2017-11-05T07:30:16.569Z,66.03
2017-11-05T07:32:45.643Z,60.33
2017-11-05T07:35:13.968Z,66.43
2017-11-05T07:37:42.294Z,62.23
2017-11-05T07:40:10.597Z,58.50
2017-11-05T07:42:39.687Z,64.30
2017-11-05T07:45:08.786Z,68.57
2017-11-05T07:47:37.874Z,63.60
2017-11-05T07:50:06.953Z,69.90
2017-11-05T07:52:35.265Z,76.90
2017-11-05T07:55:03.595Z,71.77
2017-11-05T07:57:31.931Z,63.77
2017-11-05T08:00:00.229Z,59.73
2017-11-05T08:02:28.537Z,65.40
2017-11-05T08:04:56.837Z,71.50
2017-11-05T08:07:25.925Z,62.40
2017-11-05T08:09:54.226Z,63.87
2017-11-05T08:12:23.306Z,72.97
2017-11-05T08:14:52.373Z,65.13
2017-11-05T08:17:20.710Z,68.23
2017-11-05T08:19:49.017Z,66.10
2017-11-05T08:22:17.338Z,70.13
2017-11-05T08:24:46.411Z,63.33
2017-11-05T08:27:14.740Z,64.67
2017-11-05T08:29:43.041Z,70.60
2017-11-05T08:32:11.370Z,60.53
2017-11-05T08:34:40.449Z,61.20
2017-11-05T08:37:08.769Z,62.57
2017-11-05T08:39:37.074Z,60.90
2017-11-05T08:42:05.372Z,60.70
2017-11-05T08:44:33.681Z,56.93
2017-11-05T08:47:02.009Z,56.57
2017-11-05T08:49:30.328Z,58.50
2017-11-05T08:51:59.397Z,64.13
2017-11-05T08:54:27.718Z,59.87
2017-11-05T08:56:56.016Z,62.20
2017-11-05T08:59:24.333Z,63.07
2017-11-05T09:01:52.632Z,66.40
2017-11-05T09:04:20.954Z,63.77
2017-11-05T09:06:49.257Z,59.90
2017-11-05T09:09:17.800Z,62.60
2017-11-05T09:11:46.109Z,64.37
2017-11-05T09:14:14.425Z,80.43
2017-11-05T09:16:43.481Z,69.40
2017-11-05T09:19:11.794Z,71.13
2017-11-05T09:24:15.380Z,69.53
2017-11-05T09:26:43.688Z,63.57
2017-11-05T09:29:12.769Z,59.77
2017-11-05T09:31:41.088Z,64.07
2017-11-05T09:34:09.392Z,63.80
2017-11-05T09:36:37.693Z,64.23
2017-11-05T09:39:06.020Z,56.90
2017-11-05T09:41:34.318Z,64.47
2017-11-05T09:44:02.618Z,65.00
2017-11-05T09:46:30.933Z,63.23
2017-11-05T09:48:59.277Z,67.50
2017-11-05T09:51:27.581Z,57.20
2017-11-05T09:53:56.667Z,77.17
2017-11-05T09:56:25.754Z,63.70
2017-11-05T09:58:54.062Z,66.50
2017-11-05T10:01:22.352Z,67.20
2017-11-05T10:03:50.675Z,66.63
2017-11-05T10:06:18.985Z,68.00
2017-11-05T10:08:48.074Z,60.73
2017-11-05T10:11:17.137Z,62.30
2017-11-05T10:13:45.464Z,61.17
2017-11-05T10:16:13.782Z,59.73
2017-11-05T10:18:42.861Z,67.13
2017-11-05T10:21:11.158Z,64.63
2017-11-05T10:23:39.476Z,59.73
2017-11-05T10:26:08.541Z,58.10
2017-11-05T10:28:36.843Z,51.67
2017-11-05T10:31:05.924Z,57.30
2017-11-05T10:33:34.222Z,55.40
2017-11-05T10:36:03.295Z,64.33
2017-11-05T10:38:37.863Z,63.63
2017-11-05T10:41:06.174Z,63.83
2017-11-05T10:43:34.478Z,59.53
2017-11-05T10:46:02.797Z,54.30
2017-11-05T10:48:31.097Z,54.10
2017-11-05T10:50:59.412Z,61.20
2017-11-05T10:53:28.476Z,57.13
2017-11-05T10:55:56.776Z,61.87
2017-11-05T10:58:25.069Z,50.27
2017-11-05T11:00:54.145Z,55.73
2017-11-05T11:03:22.441Z,63.57
2017-11-05T11:05:51.516Z,63.73
2017-11-05T11:08:19.830Z,70.87
2017-11-05T11:10:48.165Z,63.43
2017-11-05T11:13:16.466Z,78.97
2017-11-05T11:15:44.809Z,62.87
2017-11-05T11:18:13.117Z,70.67
2017-11-05T11:20:42.196Z,71.83
2017-11-05T11:23:10.501Z,65.57
2017-11-05T11:25:38.813Z,64.57
2017-11-05T11:28:07.120Z,45.43
2017-11-05T11:30:35.428Z,35.50
2017-11-05T11:33:04.497Z,32.70
2017-11-05T11:35:32.813Z,25.40
2017-11-05T11:38:01.105Z,23.53
2017-11-05T11:40:29.417Z,18.03
2017-11-05T11:42:57.727Z,21.53
2017-11-05T11:45:26.814Z,20.73
2017-11-05T11:47:55.880Z,18.10
2017-11-05T11:50:24.204Z,25.17
2017-11-05T11:52:53.281Z,21.17
2017-11-05T11:55:22.360Z,21.03
2017-11-05T11:57:50.673Z,19.70
2017-11-05T12:00:19.741Z,14.97
2017-11-05T12:02:48.049Z,19.70
2017-11-05T12:05:16.398Z,14.10
2017-11-05T12:07:45.490Z,15.03
2017-11-05T12:10:13.812Z,15.63
2017-11-05T12:12:42.135Z,14.27
2017-11-05T12:15:10.433Z,14.17
2017-11-05T12:17:39.524Z,22.20
2017-11-05T12:20:07.825Z,13.80
2017-11-05T12:22:36.133Z,22.10
2017-11-05T12:25:04.476Z,19.10
2017-11-05T12:27:33.555Z,21.83
2017-11-05T12:30:02.649Z,19.43
2017-11-05T12:32:31.737Z,20.97
2017-11-05T12:35:00.093Z,14.17
2017-11-05T12:37:28.414Z,11.33
2017-11-05T12:39:56.778Z,7.20
2017-11-05T12:42:25.850Z,7.80
2017-11-05T12:44:54.164Z,10.73
2017-11-05T12:47:23.273Z,6.30
2017-11-05T12:49:51.560Z,7.40
2017-11-05T12:52:19.919Z,6.90
2017-11-05T12:54:48.219Z,6.00
2017-11-05T12:57:16.528Z,7.33
2017-11-05T12:59:44.828Z,6.43
2017-11-05T13:02:13.137Z,8.50
2017-11-05T13:04:41.490Z,11.20
2017-11-05T13:07:10.597Z,5.73
2017-11-05T13:09:39.697Z,6.30
2017-11-05T13:12:08.001Z,9.90
2017-11-05T13:14:36.310Z,18.00
2017-11-05T13:17:04.658Z,13.90
2017-11-05T13:19:32.981Z,10.87
2017-11-05T13:22:01.277Z,5.00
2017-11-05T13:24:30.336Z,7.27
2017-11-05T13:26:58.645Z,6.03
2017-11-05T13:29:27.717Z,9.10
2017-11-05T13:31:56.070Z,8.70
2017-11-05T13:34:24.384Z,6.00
2017-11-05T13:36:52.685Z,7.30
2017-11-05T13:39:21.753Z,7.43
2017-11-05T13:41:50.100Z,10.33
2017-11-05T13:44:18.421Z,6.03
2017-11-05T13:46:47.504Z,4.93
2017-11-05T13:49:15.810Z,6.50
2017-11-05T13:51:44.152Z,2.20
2017-11-05T13:54:12.468Z,3.13
2017-11-05T13:56:40.772Z,2.50
2017-11-05T13:59:09.095Z,2.37
2017-11-05T14:01:38.155Z,3.10
2017-11-05T14:04:06.454Z,3.30
2017-11-05T14:06:34.755Z,2.93
2017-11-05T14:09:03.909Z,2.57
2017-11-05T14:11:32.247Z,2.47
2017-11-05T14:14:00.551Z,2.40
2017-11-05T14:16:28.901Z,3.67
2017-11-05T14:18:57.266Z,2.27
2017-11-05T14:21:26.326Z,2.10
2017-11-05T14:23:54.661Z,2.03
2017-11-05T14:26:22.949Z,2.03
2017-11-05T14:28:51.246Z,2.80
2017-11-05T14:31:19.547Z,2.43
2017-11-05T14:33:47.865Z,2.97
2017-11-05T14:36:16.197Z,3.30
2017-11-05T14:38:44.498Z,6.70
2017-11-05T14:41:13.549Z,5.70
2017-11-05T14:43:42.621Z,6.37
2017-11-05T14:46:10.932Z,3.80
2017-11-05T14:48:39.246Z,16.23
2017-11-05T14:51:08.301Z,6.30
2017-11-05T14:53:36.600Z,7.83
2017-11-05T14:56:04.907Z,7.63
2017-11-05T14:58:33.242Z,10.57
2017-11-05T15:01:01.551Z,10.40
2017-11-05T15:03:29.858Z,7.80
2017-11-05T15:05:58.162Z,4.40
2017-11-05T15:08:27.221Z,11.27
2017-11-05T15:10:55.525Z,6.13
2017-11-05T15:13:23.828Z,8.17
2017-11-05T15:15:52.133Z,11.83
2017-11-05T15:18:21.253Z,6.80
2017-11-05T15:20:49.558Z,4.60
2017-11-05T15:23:17.849Z,8.43
2017-11-05T15:25:46.169Z,7.60
2017-11-05T15:28:14.457Z,6.53
2017-11-05T15:30:42.753Z,8.63
2017-11-05T15:33:11.062Z,7.90
2017-11-05T15:35:39.417Z,6.90
2017-11-05T15:38:07.723Z,11.03
2017-11-05T15:40:36.855Z,7.27
2017-11-05T15:43:05.146Z,8.47
2017-11-05T15:45:33.454Z,9.57
2017-11-05T15:48:01.761Z,14.37
2017-11-05T15:50:30.851Z,37.63
2017-11-05T15:52:59.960Z,15.97
2017-11-05T15:55:29.048Z,9.07
2017-11-05T15:57:58.122Z,11.70
2017-11-05T16:00:26.481Z,10.63
2017-11-05T16:02:54.788Z,7.53
2017-11-05T16:05:23.087Z,9.63
2017-11-05T16:07:51.434Z,13.97
2017-11-05T16:10:19.749Z,14.30
2017-11-05T16:12:48.043Z,10.93
2017-11-05T16:15:16.417Z,10.13
2017-11-05T16:17:44.764Z,9.97
2017-11-05T16:20:13.824Z,7.97
2017-11-05T16:22:42.197Z,12.70
2017-11-05T16:25:10.485Z,9.53
2017-11-05T16:27:38.845Z,11.70
2017-11-05T16:30:07.144Z,9.37
2017-11-05T16:32:35.508Z,6.60
2017-11-05T16:35:03.852Z,15.07
2017-11-05T16:37:32.218Z,7.40
2017-11-05T16:40:01.273Z,8.43
2017-11-05T16:42:29.636Z,13.83
2017-11-05T16:44:57.926Z,9.93
2017-11-05T16:47:26.236Z,15.73
2017-11-05T16:49:54.528Z,8.80
2017-11-05T16:52:22.828Z,7.77
2017-11-05T16:54:51.129Z,5.70
2017-11-05T16:57:19.448Z,7.73
2017-11-05T16:59:48.569Z,7.10
2017-11-05T17:02:16.889Z,10.33
2017-11-05T17:04:45.195Z,7.43
2017-11-05T17:07:14.278Z,8.10
2017-11-05T17:09:43.394Z,7.37
2017-11-05T17:12:11.700Z,7.90
2017-11-05T17:14:40.048Z,10.50
2017-11-05T17:17:09.113Z,7.17
2017-11-05T17:19:37.466Z,8.90
2017-11-05T17:22:05.848Z,14.87
2017-11-05T17:24:34.145Z,9.50
2017-11-05T17:27:02.440Z,15.87
2017-11-05T17:29:31.555Z,8.60
2017-11-05T17:31:59.881Z,11.70
2017-11-05T17:34:28.190Z,22.20
2017-11-05T17:36:57.313Z,15.07
2017-11-05T17:39:25.671Z,11.60
2017-11-05T17:41:54.736Z,14.97
2017-11-05T17:44:23.165Z,10.83
2017-11-05T17:46:51.477Z,13.70
2017-11-05T17:49:20.136Z,16.03
2017-11-05T17:51:48.509Z,21.60
2017-11-05T17:54:16.819Z,11.87
2017-11-05T17:56:45.149Z,17.80
2017-11-05T17:59:14.214Z,14.73
2017-11-05T18:01:42.522Z,14.40
2017-11-05T18:04:10.850Z,12.67
2017-11-05T18:06:39.160Z,20.03
2017-11-05T18:09:08.281Z,9.50
2017-11-05T18:11:36.605Z,18.27
2017-11-05T18:14:04.960Z,20.30
2017-11-05T18:16:33.272Z,10.37
2017-11-05T18:19:01.565Z,10.33
2017-11-05T18:21:30.700Z,12.30
2017-11-05T18:23:58.997Z,15.57
2017-11-05T18:26:27.311Z,19.53
2017-11-05T18:28:55.673Z,15.43
2017-11-05T18:31:24.006Z,21.10
2017-11-05T18:33:52.306Z,18.33
2017-11-05T18:36:20.601Z,15.60
2017-11-05T18:38:48.969Z,16.40
2017-11-05T18:41:17.283Z,21.03
2017-11-05T18:43:46.370Z,15.50
2017-11-05T18:46:14.678Z,16.93
2017-11-05T18:48:43.040Z,24.50
2017-11-05T18:51:12.155Z,17.17
2017-11-05T18:53:40.472Z,22.10
2017-11-05T18:56:08.792Z,22.47
2017-11-05T18:58:37.925Z,22.17
2017-11-05T19:01:06.225Z,21.33
2017-11-05T19:03:34.617Z,25.13
2017-11-05T19:06:02.981Z,23.90
2017-11-05T19:08:31.327Z,21.13
2017-11-05T19:10:59.643Z,21.90
2017-11-05T19:13:28.021Z,25.97
2017-11-05T19:15:56.330Z,19.67
2017-11-05T19:18:25.457Z,23.53
2017-11-05T19:20:53.804Z,19.17
2017-11-05T19:23:22.879Z,23.47
2017-11-05T19:25:51.208Z,17.30
2017-11-05T19:28:19.497Z,23.33
2017-11-05T19:30:47.796Z,24.23
2017-11-05T19:33:16.174Z,23.97
2017-11-05T19:35:44.468Z,28.10
2017-11-05T19:38:12.849Z,21.63
2017-11-05T19:40:41.206Z,29.77
2017-11-05T19:43:09.525Z,29.60
2017-11-05T19:45:38.644Z,27.50
2017-11-05T19:48:07.025Z,21.93
2017-11-05T19:50:35.435Z,31.30
2017-11-05T19:53:03.814Z,28.83
2017-11-05T19:55:32.176Z,42.10
2017-11-05T19:58:00.536Z,28.17
2017-11-05T20:00:28.888Z,29.33
2017-11-05T20:02:57.269Z,22.93
2017-11-05T20:05:26.346Z,26.43
2017-11-05T20:07:54.717Z,20.93
2017-11-05T20:10:23.085Z,25.57
2017-11-05T20:12:51.452Z,19.53
2017-11-05T20:15:19.813Z,16.70
2017-11-05T20:17:48.169Z,17.67
2017-11-05T20:20:16.525Z,18.57
2017-11-05T20:22:45.644Z,21.60
2017-11-05T20:25:13.955Z,26.17
2017-11-05T20:27:42.265Z,19.23
2017-11-05T20:30:10.566Z,17.63
2017-11-05T20:32:39.698Z,17.27
2017-11-05T20:35:08.056Z,14.97
2017-11-05T20:37:36.408Z,19.80
2017-11-05T20:40:05.524Z,18.90
2017-11-05T20:42:33.834Z,17.60
2017-11-05T20:45:02.153Z,13.73
2017-11-05T20:47:31.275Z,10.63
2017-11-05T20:49:59.653Z,16.97
2017-11-05T20:52:27.952Z,17.57
2017-11-05T20:54:56.343Z,11.20
2017-11-05T20:57:24.699Z,18.73
2017-11-05T20:59:53.061Z,13.83
2017-11-05T21:02:22.188Z,16.37
2017-11-05T21:04:50.501Z,15.53
2017-11-05T21:07:18.854Z,13.90
2017-11-05T21:09:47.200Z,17.20
2017-11-05T21:12:15.549Z,15.27
2017-11-05T21:14:44.663Z,17.63
2017-11-05T21:17:13.019Z,24.37
2017-11-05T21:19:41.389Z,15.53
2017-11-05T21:22:09.834Z,25.73
2017-11-05T21:24:38.225Z,15.00
2017-11-05T21:27:06.595Z,25.83
2017-11-05T21:29:34.912Z,18.03
2017-11-05T21:32:03.230Z,17.10
2017-11-05T21:34:31.597Z,18.70
2017-11-05T21:36:59.901Z,17.63
2017-11-05T21:39:28.261Z,13.20
2017-11-05T21:41:56.635Z,16.83
2017-11-05T21:44:25.013Z,16.97
2017-11-05T21:46:53.360Z,14.27
2017-11-05T21:49:21.677Z,18.30
2017-11-05T21:51:49.971Z,15.07
2017-11-05T21:54:18.288Z,15.93
2017-11-05T21:56:46.605Z,15.57
2017-11-05T21:59:15.806Z,20.83
2017-11-05T22:01:44.117Z,17.13
2017-11-05T22:04:12.879Z,21.47
2017-11-05T22:06:41.221Z,33.37
2017-11-05T22:09:10.305Z,20.00
2017-11-05T22:11:38.629Z,28.67
2017-11-05T22:14:06.951Z,15.83
2017-11-05T22:16:35.258Z,17.93
2017-11-05T22:19:04.900Z,23.37
2017-11-05T22:21:33.217Z,22.43
2017-11-05T22:24:01.589Z,25.07
2017-11-05T22:26:30.689Z,20.70
2017-11-05T22:28:59.013Z,19.23
2017-11-05T22:31:27.325Z,16.47
2017-11-05T22:33:55.645Z,21.90
2017-11-05T22:36:24.709Z,14.40
2017-11-05T22:38:53.025Z,18.20
2017-11-05T22:41:21.340Z,20.63
2017-11-05T22:43:49.644Z,19.30
2017-11-05T22:46:17.962Z,19.77
2017-11-05T22:48:46.273Z,19.10
2017-11-05T22:51:14.624Z,21.13
2017-11-05T22:53:42.942Z,19.20
2017-11-05T22:56:11.242Z,20.77
2017-11-05T22:58:39.565Z,18.63
2017-11-05T23:01:07.870Z,16.87
2017-11-05T23:03:36.185Z,23.53
2017-11-05T23:06:05.266Z,16.73
2017-11-05T23:08:33.591Z,23.73
2017-11-05T23:11:01.897Z,19.33
2017-11-05T23:13:30.985Z,16.83
2017-11-05T23:15:59.320Z,16.63
2017-11-05T23:18:27.626Z,13.50
2017-11-05T23:20:55.933Z,18.53
2017-11-05T23:23:24.230Z,14.63
2017-11-05T23:25:53.309Z,20.80
2017-11-05T23:28:21.621Z,16.93
2017-11-05T23:30:50.705Z,25.47
2017-11-05T23:33:19.773Z,16.03
2017-11-05T23:35:48.786Z,17.13
2017-11-05T23:38:17.868Z,20.00
2017-11-05T23:40:46.957Z,15.87
2017-11-05T23:43:15.251Z,21.10
2017-11-05T23:45:44.328Z,17.80
2017-11-05T23:48:12.637Z,12.03
2017-11-05T23:50:41.714Z,13.83
2017-11-05T23:53:10.021Z,11.03
2017-11-05T23:55:39.095Z,13.13
2017-11-05T23:58:08.186Z,17.50
